CYLA

Aupaluk Airport

Code ICAO CYLA
Code IATA YPJ
Nom Aupaluk Airport
Emplacement Aupaluk, Quebec, CA
Élévation 121 pieds / 36.9 mètres
Latitude 59.29666667
Longitude -69.59972222
METAR CYLA 051700Z 27033KT 15SM BKN023 BKN080 06/M01 A2970 RMK SC6AC1 WIND ESTD SLP060
Informations extras Afficher NOTAMS
Afficher cartes
Piste Longueur Largeur Surface Élévation
04 3521 ft 100 ft GRAVEL 74 ft
22 3521 ft 100 ft GRAVEL 121 ft